createdAt,value
2023-01-12T00:00:35.708Z,12.00
2023-01-12T00:03:03.377Z,7.30
2023-01-12T00:05:30.943Z,7.15
2023-01-12T00:07:58.608Z,8.80
2023-01-12T00:10:29.240Z,8.38
2023-01-12T00:12:57.994Z,4.35
2023-01-12T00:15:55.585Z,8.33
2023-01-12T00:18:23.265Z,7.25
2023-01-12T00:20:51.253Z,5.97
2023-01-12T00:23:19.850Z,9.00
2023-01-12T00:25:51.469Z,5.97
2023-01-12T00:28:19.064Z,7.40
2023-01-12T00:30:46.693Z,6.10
2023-01-12T00:33:14.454Z,6.90
2023-01-12T00:35:41.962Z,9.45
2023-01-12T00:38:09.597Z,9.02
2023-01-12T00:40:37.262Z,9.87
2023-01-12T00:43:23.299Z,8.95
2023-01-12T00:45:51.345Z,9.40
2023-01-12T00:48:18.983Z,7.80
2023-01-12T00:50:49.444Z,6.00
2023-01-12T00:53:17.127Z,7.17
2023-01-12T00:55:46.348Z,7.32
2023-01-12T00:58:13.953Z,6.72
2023-01-12T01:00:41.640Z,6.53
2023-01-12T01:03:09.171Z,4.07
2023-01-12T01:05:36.834Z,4.53
2023-01-12T01:08:05.053Z,4.35
2023-01-12T01:10:32.558Z,6.60
2023-01-12T01:13:00.159Z,5.57
2023-01-12T01:15:27.822Z,5.00
2023-01-12T01:17:55.406Z,6.27
2023-01-12T01:20:23.023Z,5.85
2023-01-12T01:22:53.219Z,6.80
2023-01-12T01:25:20.819Z,3.35
2023-01-12T01:27:48.417Z,6.25
2023-01-12T01:30:16.314Z,4.53
2023-01-12T01:32:43.877Z,7.18
2023-01-12T01:35:11.423Z,4.60
2023-01-12T01:37:38.999Z,8.93
2023-01-12T01:40:07.295Z,6.45
2023-01-12T01:42:34.943Z,5.63
2023-01-12T01:45:05.119Z,5.40
2023-01-12T01:47:56.019Z,4.13
2023-01-12T01:50:29.063Z,5.80
2023-01-12T01:53:02.362Z,6.07
2023-01-12T01:56:10.914Z,4.40
2023-01-12T01:58:43.459Z,5.60
2023-01-12T02:01:11.353Z,5.70
2023-01-12T02:03:40.337Z,5.38
2023-01-12T02:06:09.244Z,6.82
2023-01-12T02:08:45.437Z,7.40
2023-01-12T02:11:34.339Z,6.28
2023-01-12T02:14:20.433Z,6.10
2023-01-12T02:16:58.243Z,4.63
2023-01-12T02:19:43.897Z,6.15
2023-01-12T02:22:21.266Z,7.43
2023-01-12T02:25:00.790Z,5.90
2023-01-12T02:27:42.706Z,5.40
2023-01-12T02:30:47.579Z,5.63
2023-01-12T02:33:32.887Z,5.20
2023-01-12T02:36:23.383Z,3.50
2023-01-12T02:39:03.284Z,4.43
2023-01-12T02:42:00.853Z,4.68
2023-01-12T02:45:10.336Z,5.20
2023-01-12T02:47:47.749Z,4.60
2023-01-12T02:50:22.788Z,6.10
2023-01-12T02:53:02.234Z,4.95
2023-01-12T02:55:32.224Z,3.70
2023-01-12T02:58:01.261Z,4.95
2023-01-12T03:00:29.914Z,5.00
2023-01-12T03:02:57.484Z,4.87
2023-01-12T03:05:27.235Z,6.72
2023-01-12T03:07:59.307Z,4.45
2023-01-12T03:10:35.889Z,6.80
2023-01-12T03:13:07.805Z,6.82
2023-01-12T03:15:39.951Z,6.07
2023-01-12T03:18:15.394Z,6.97
2023-01-12T03:21:28.517Z,4.10
2023-01-12T03:24:14.899Z,5.65
2023-01-12T03:26:48.780Z,5.53
2023-01-12T03:29:19.588Z,6.20
2023-01-12T03:31:47.357Z,6.93
2023-01-12T03:34:17.994Z,6.28
2023-01-12T03:37:03.701Z,6.28
2023-01-12T03:40:25.395Z,6.20
2023-01-12T03:42:57.831Z,5.47
2023-01-12T03:45:31.682Z,7.68
2023-01-12T03:48:42.135Z,6.00
2023-01-12T03:51:23.947Z,5.93
2023-01-12T03:53:53.394Z,7.00
2023-01-12T03:56:24.330Z,6.40
2023-01-12T03:58:54.879Z,6.50
2023-01-12T04:01:22.621Z,9.38
2023-01-12T04:03:50.457Z,9.80
2023-01-12T04:06:18.078Z,8.57
2023-01-12T04:08:45.638Z,5.10
2023-01-12T04:11:31.592Z,6.75
2023-01-12T04:13:59.196Z,8.88
2023-01-12T04:16:26.834Z,7.10
2023-01-12T04:18:54.602Z,9.35
2023-01-12T04:21:41.658Z,8.40
2023-01-12T04:24:09.263Z,8.00
2023-01-12T04:26:36.920Z,5.68
2023-01-12T04:29:04.558Z,7.00
2023-01-12T04:31:32.205Z,6.65
2023-01-12T04:34:00.042Z,6.77
2023-01-12T04:36:27.660Z,6.82
2023-01-12T04:38:55.329Z,10.95
2023-01-12T04:41:22.962Z,7.68
2023-01-12T04:43:50.567Z,7.72
2023-01-12T04:46:18.147Z,3.70
2023-01-12T04:48:46.058Z,5.80
2023-01-12T04:51:14.831Z,4.97
2023-01-12T04:53:42.498Z,5.43
2023-01-12T04:56:10.308Z,5.80
2023-01-12T04:58:37.903Z,4.97
2023-01-12T05:01:14.193Z,6.20
2023-01-12T05:03:42.590Z,7.00
2023-01-12T05:06:10.446Z,7.38
2023-01-12T05:08:57.023Z,4.95
2023-01-12T05:11:28.855Z,9.33
2023-01-12T05:13:57.468Z,7.65
2023-01-12T05:16:25.856Z,6.55
2023-01-12T05:18:54.462Z,8.15
2023-01-12T05:21:23.887Z,8.30
2023-01-12T05:23:52.846Z,9.87
2023-01-12T05:26:21.066Z,7.28
2023-01-12T05:28:50.322Z,8.13
2023-01-12T05:31:19.733Z,9.98
2023-01-12T05:33:48.308Z,37.05
2023-01-12T05:36:17.431Z,32.73
2023-01-12T05:38:46.457Z,18.63
2023-01-12T05:41:14.964Z,14.15
2023-01-12T05:43:52.709Z,8.65
2023-01-12T05:46:33.441Z,8.07
2023-01-12T05:49:01.023Z,8.33
2023-01-12T05:51:31.126Z,9.23
2023-01-12T05:53:58.959Z,9.15
2023-01-12T05:56:27.997Z,13.20
2023-01-12T05:59:00.047Z,11.05
2023-01-12T06:01:29.320Z,9.47
2023-01-12T06:04:00.811Z,9.57
2023-01-12T06:06:31.599Z,9.80
2023-01-12T06:09:00.742Z,7.35
2023-01-12T06:11:47.284Z,5.85
2023-01-12T06:14:16.706Z,9.15
2023-01-12T06:16:44.858Z,15.83
2023-01-12T06:19:14.832Z,9.63
2023-01-12T06:21:44.641Z,8.23
2023-01-12T06:24:15.099Z,10.30
2023-01-12T06:26:46.516Z,14.02
2023-01-12T06:29:16.235Z,11.63
2023-01-12T06:31:46.965Z,17.85
2023-01-12T06:34:14.742Z,8.63
2023-01-12T06:36:44.752Z,8.45
2023-01-12T06:39:12.897Z,13.52
2023-01-12T06:42:01.542Z,11.87
2023-01-12T06:44:32.345Z,9.75
2023-01-12T06:47:04.430Z,15.35
2023-01-12T06:49:32.250Z,13.93
2023-01-12T06:52:00.056Z,8.98
2023-01-12T06:54:28.023Z,8.97
2023-01-12T06:56:56.021Z,15.07
2023-01-12T06:59:23.878Z,17.70
2023-01-12T07:01:53.853Z,17.60
2023-01-12T07:04:23.120Z,14.15
2023-01-12T07:06:55.436Z,18.47
2023-01-12T07:09:23.160Z,11.20
2023-01-12T07:11:51.042Z,9.35
2023-01-12T07:14:18.864Z,17.15
2023-01-12T07:16:46.797Z,12.05
2023-01-12T07:19:14.592Z,15.13
2023-01-12T07:21:45.395Z,16.70
2023-01-12T07:24:13.142Z,13.37
2023-01-12T07:26:41.087Z,15.85
2023-01-12T07:29:11.525Z,16.17
2023-01-12T07:31:42.077Z,12.75
2023-01-12T07:34:10.302Z,18.25
2023-01-12T07:36:39.934Z,17.07
2023-01-12T07:39:08.843Z,14.30
2023-01-12T07:42:14.464Z,14.35
2023-01-12T07:44:45.242Z,18.70
2023-01-12T07:47:13.116Z,22.67
2023-01-12T07:49:41.140Z,48.97
2023-01-12T07:52:12.573Z,22.30
2023-01-12T07:54:41.838Z,15.18
2023-01-12T07:57:11.053Z,19.88
2023-01-12T07:59:41.262Z,18.23
2023-01-12T08:02:16.793Z,19.13
2023-01-12T08:04:45.490Z,27.90
2023-01-12T08:07:15.243Z,17.42
2023-01-12T08:09:44.894Z,18.17
2023-01-12T08:12:12.966Z,17.70
2023-01-12T08:14:44.717Z,20.08
2023-01-12T08:17:25.189Z,19.83
2023-01-12T08:20:10.112Z,19.77
2023-01-12T08:22:44.060Z,18.13
2023-01-12T08:25:17.693Z,18.23
2023-01-12T08:27:49.893Z,20.10
2023-01-12T08:30:27.765Z,20.07
2023-01-12T08:32:58.804Z,19.65
2023-01-12T08:35:28.794Z,16.35
2023-01-12T08:37:57.471Z,17.05
2023-01-12T08:40:45.294Z,16.45
2023-01-12T08:43:35.419Z,16.63
2023-01-12T08:46:10.040Z,18.40
2023-01-12T08:48:38.586Z,21.05
2023-01-12T08:51:08.219Z,17.23
2023-01-12T08:53:38.397Z,17.88
2023-01-12T08:56:06.828Z,19.55
2023-01-12T08:58:38.184Z,20.93
2023-01-12T09:01:10.732Z,23.17
2023-01-12T09:03:41.902Z,19.08
2023-01-12T09:06:32.877Z,17.92
2023-01-12T09:09:05.668Z,15.07
2023-01-12T09:11:35.466Z,16.87
2023-01-12T09:14:06.341Z,16.73
2023-01-12T09:16:34.507Z,14.38
2023-01-12T09:19:08.170Z,16.33
2023-01-12T09:21:41.381Z,15.05
2023-01-12T09:24:12.648Z,12.57
2023-01-12T09:26:45.209Z,10.52
2023-01-12T09:29:15.693Z,18.83
2023-01-12T09:31:49.642Z,11.63
2023-01-12T09:34:18.895Z,14.23
2023-01-12T09:36:50.997Z,16.47
2023-01-12T09:39:28.920Z,10.20
2023-01-12T09:42:26.042Z,9.50
2023-01-12T09:45:12.349Z,7.95
2023-01-12T09:47:53.563Z,9.68
2023-01-12T09:50:35.947Z,9.38
2023-01-12T09:53:31.516Z,15.67
2023-01-12T09:56:28.729Z,12.10
2023-01-12T09:59:27.982Z,12.07
2023-01-12T10:01:57.313Z,12.00
2023-01-12T10:04:25.800Z,9.18
2023-01-12T10:06:58.272Z,8.57
2023-01-12T10:09:28.026Z,12.90
2023-01-12T10:12:06.671Z,6.40
2023-01-12T10:14:49.334Z,7.97
2023-01-12T10:17:50.801Z,6.13
2023-01-12T10:20:40.033Z,5.18
2023-01-12T10:23:07.846Z,26.42
2023-01-12T10:25:38.569Z,8.93
2023-01-12T10:28:26.768Z,7.40
2023-01-12T10:30:57.569Z,12.73
2023-01-12T10:33:36.816Z,6.53
2023-01-12T10:36:17.668Z,8.98
2023-01-12T10:39:05.199Z,10.00
2023-01-12T10:41:40.545Z,8.27
2023-01-12T10:44:26.554Z,7.43
2023-01-12T10:47:18.626Z,11.93
2023-01-12T10:49:46.615Z,7.85
2023-01-12T10:52:40.134Z,8.05
2023-01-12T10:55:26.189Z,9.18
2023-01-12T10:57:56.101Z,9.90
2023-01-12T11:00:29.249Z,10.13
2023-01-12T11:02:57.600Z,8.68
2023-01-12T11:05:39.752Z,8.35
2023-01-12T11:08:26.423Z,12.27
2023-01-12T11:11:23.399Z,9.70
2023-01-12T11:14:03.601Z,7.60
2023-01-12T11:16:48.496Z,7.95
2023-01-12T11:19:29.967Z,13.25
2023-01-12T11:22:06.458Z,10.35
2023-01-12T11:24:43.032Z,10.50
2023-01-12T11:27:16.755Z,9.23
2023-01-12T11:30:00.701Z,12.33
2023-01-12T11:32:55.173Z,7.82
2023-01-12T11:35:33.093Z,7.65
2023-01-12T11:38:13.970Z,8.88
2023-01-12T11:40:44.581Z,9.45
2023-01-12T11:43:55.932Z,10.70
2023-01-12T11:46:30.249Z,6.37
2023-01-12T11:49:05.929Z,10.88
2023-01-12T11:51:36.352Z,7.18
2023-01-12T11:54:07.688Z,5.93
2023-01-12T11:56:54.222Z,10.10
2023-01-12T11:59:41.649Z,5.60
2023-01-12T12:02:44.299Z,6.20
2023-01-12T12:05:30.254Z,6.45
2023-01-12T12:08:28.999Z,5.45
2023-01-12T12:10:59.304Z,6.18
2023-01-12T12:13:33.552Z,7.63
2023-01-12T12:16:13.332Z,5.47
2023-01-12T12:18:54.445Z,6.60
2023-01-12T12:21:22.041Z,9.55
2023-01-12T12:24:01.842Z,6.38
2023-01-12T12:26:39.630Z,5.82
2023-01-12T12:29:39.375Z,16.27
2023-01-12T12:32:28.152Z,6.73
2023-01-12T12:35:13.926Z,6.67
2023-01-12T12:38:08.972Z,6.47
2023-01-12T12:41:24.937Z,7.32
2023-01-12T12:44:39.132Z,8.95
2023-01-12T12:47:32.158Z,7.15
2023-01-12T12:50:00.980Z,8.40
2023-01-12T12:52:36.226Z,8.97
2023-01-12T12:55:08.110Z,7.93
2023-01-12T12:57:59.601Z,11.38
2023-01-12T13:00:42.781Z,9.73
2023-01-12T13:03:10.809Z,10.05
2023-01-12T13:05:47.896Z,7.07
2023-01-12T13:08:26.893Z,8.63
2023-01-12T13:10:57.956Z,6.63
2023-01-12T13:13:33.862Z,8.07
2023-01-12T13:16:16.554Z,13.30
2023-01-12T13:19:07.186Z,8.70
2023-01-12T13:21:43.085Z,8.57
2023-01-12T13:24:13.889Z,5.37
2023-01-12T13:26:47.267Z,8.50
2023-01-12T13:29:23.866Z,5.85
2023-01-12T13:32:11.146Z,6.90
2023-01-12T13:34:44.405Z,9.32
2023-01-12T13:37:44.856Z,9.80
2023-01-12T13:40:18.725Z,12.20
2023-01-12T13:43:05.779Z,8.60
2023-01-12T13:46:17.274Z,6.03
2023-01-12T13:48:49.147Z,8.82
2023-01-12T13:51:34.687Z,7.75
2023-01-12T13:54:15.475Z,9.37
2023-01-12T13:56:55.364Z,6.17
2023-01-12T13:59:25.060Z,10.50
2023-01-12T14:01:56.290Z,7.75
2023-01-12T14:04:45.178Z,6.25
2023-01-12T14:07:28.611Z,8.93
2023-01-12T14:10:09.691Z,11.10
2023-01-12T14:12:50.220Z,7.07
2023-01-12T14:15:55.001Z,6.95
2023-01-12T14:18:25.480Z,6.90
2023-01-12T14:20:55.292Z,6.82
2023-01-12T14:23:27.251Z,10.10
2023-01-12T14:26:12.868Z,11.17
2023-01-12T14:28:49.027Z,8.18
2023-01-12T14:31:32.992Z,7.65
2023-01-12T14:34:04.044Z,10.23
2023-01-12T14:36:44.808Z,7.53
2023-01-12T14:39:20.875Z,7.77
2023-01-12T14:42:11.155Z,10.27
2023-01-12T14:45:14.658Z,9.73
2023-01-12T14:47:42.535Z,8.88
2023-01-12T14:50:13.307Z,10.57
2023-01-12T14:52:43.896Z,9.15
2023-01-12T14:55:37.868Z,10.90
2023-01-12T14:58:06.448Z,8.98
2023-01-12T15:00:36.812Z,9.65
2023-01-12T15:03:17.000Z,8.40
2023-01-12T15:05:44.780Z,5.50
2023-01-12T15:08:12.203Z,6.23
2023-01-12T15:10:44.922Z,7.78
2023-01-12T15:13:35.884Z,7.18
2023-01-12T15:16:24.102Z,6.50
2023-01-12T15:19:12.694Z,6.93
2023-01-12T15:22:01.720Z,6.93
2023-01-12T15:24:49.703Z,16.20
2023-01-12T15:27:20.747Z,10.10
2023-01-12T15:29:48.629Z,15.25
2023-01-12T15:32:52.395Z,35.08
2023-01-12T15:35:27.781Z,10.13
2023-01-12T15:37:57.124Z,8.53
2023-01-12T15:40:26.524Z,15.37
2023-01-12T15:42:54.711Z,12.88
2023-01-12T15:45:37.067Z,8.13
2023-01-12T15:48:05.926Z,30.10
2023-01-12T15:50:36.724Z,11.75
2023-01-12T15:53:27.797Z,11.33
2023-01-12T15:55:55.387Z,8.98
2023-01-12T15:58:24.041Z,8.38
2023-01-12T16:00:52.338Z,8.60
2023-01-12T16:03:54.459Z,9.32
2023-01-12T16:06:09.425Z,8.90
2023-01-12T16:08:37.570Z,7.07
2023-01-12T16:11:14.777Z,12.82
2023-01-12T16:13:44.003Z,9.98
2023-01-12T16:16:16.574Z,8.73
2023-01-12T16:18:44.885Z,11.93
2023-01-12T16:21:17.184Z,8.57
2023-01-12T16:23:45.079Z,9.93
2023-01-12T16:26:12.888Z,7.75
2023-01-12T16:28:40.761Z,11.00
2023-01-12T16:31:12.971Z,7.80
2023-01-12T16:33:42.589Z,11.60
2023-01-12T16:36:11.630Z,8.77
2023-01-12T16:38:39.332Z,7.47
2023-01-12T16:41:15.990Z,9.85
2023-01-12T16:43:43.727Z,11.70
2023-01-12T16:46:12.992Z,9.10
2023-01-12T16:48:55.958Z,14.30
2023-01-12T16:51:24.759Z,9.88
2023-01-12T16:53:57.719Z,9.77
2023-01-12T16:56:25.828Z,9.73
2023-01-12T16:58:56.568Z,10.32
2023-01-12T17:01:26.373Z,13.53
2023-01-12T17:03:58.105Z,16.00
2023-01-12T17:06:28.300Z,9.60
2023-01-12T17:08:56.878Z,9.88
2023-01-12T17:11:30.565Z,9.82
2023-01-12T17:14:18.848Z,12.17
2023-01-12T17:16:49.711Z,11.88
2023-01-12T17:19:18.869Z,15.40
2023-01-12T17:21:58.540Z,8.77
2023-01-12T17:24:36.535Z,12.65
2023-01-12T17:27:04.300Z,15.57
2023-01-12T17:29:34.902Z,17.30
2023-01-12T17:32:07.253Z,14.52
2023-01-12T17:34:39.091Z,14.05
2023-01-12T17:37:12.977Z,10.43
2023-01-12T17:39:49.643Z,12.57
2023-01-12T17:42:36.711Z,13.03
2023-01-12T17:45:05.422Z,13.77
2023-01-12T17:47:40.783Z,17.73
2023-01-12T17:50:16.339Z,15.27
2023-01-12T17:52:47.356Z,15.35
2023-01-12T17:55:26.506Z,22.05
2023-01-12T17:58:02.045Z,14.53
2023-01-12T18:00:37.906Z,15.03
2023-01-12T18:03:05.860Z,14.98
2023-01-12T18:05:35.433Z,16.73
2023-01-12T18:08:14.821Z,13.27
2023-01-12T18:10:58.584Z,15.55
2023-01-12T18:13:30.211Z,19.90
2023-01-12T18:16:01.522Z,16.48
2023-01-12T18:18:32.902Z,15.25
2023-01-12T18:21:09.062Z,16.30
2023-01-12T18:23:40.829Z,12.95
2023-01-12T18:26:13.631Z,17.47
2023-01-12T18:28:45.074Z,11.77
2023-01-12T18:31:18.055Z,15.30
2023-01-12T18:33:51.811Z,15.13
2023-01-12T18:36:24.350Z,14.45
2023-01-12T18:38:54.287Z,13.88
2023-01-12T18:41:41.897Z,14.57
2023-01-12T18:44:10.674Z,14.35
2023-01-12T18:47:04.159Z,17.77
2023-01-12T18:49:34.363Z,15.27
2023-01-12T18:52:21.490Z,14.60
2023-01-12T18:54:51.776Z,12.33
2023-01-12T18:57:24.733Z,15.10
2023-01-12T18:59:56.366Z,15.90
2023-01-12T19:02:24.344Z,16.10
2023-01-12T19:05:12.609Z,13.63
2023-01-12T19:08:05.127Z,14.43
2023-01-12T19:10:36.189Z,14.17
2023-01-12T19:13:31.590Z,12.23
2023-01-12T19:16:19.641Z,14.20
2023-01-12T19:18:48.174Z,11.23
2023-01-12T19:21:34.738Z,15.00
2023-01-12T19:24:20.739Z,13.03
2023-01-12T19:27:06.798Z,11.55
2023-01-12T19:29:35.653Z,14.80
2023-01-12T19:32:03.416Z,12.02
2023-01-12T19:34:31.153Z,13.55
2023-01-12T19:36:58.918Z,15.63
2023-01-12T19:39:44.116Z,15.43
2023-01-12T19:42:32.335Z,12.65
2023-01-12T19:44:59.973Z,13.68
2023-01-12T19:47:27.627Z,14.25
2023-01-12T19:49:55.410Z,14.60
2023-01-12T19:52:23.390Z,13.40
2023-01-12T19:54:51.253Z,11.52
2023-01-12T19:57:21.704Z,15.77
2023-01-12T19:59:49.369Z,16.35
2023-01-12T20:02:17.212Z,16.30
2023-01-12T20:04:45.777Z,15.48
2023-01-12T20:07:14.950Z,14.77
2023-01-12T20:09:42.556Z,12.55
2023-01-12T20:12:10.175Z,13.57
2023-01-12T20:14:37.880Z,12.07
2023-01-12T20:17:06.165Z,13.75
2023-01-12T20:19:38.135Z,12.07
2023-01-12T20:22:05.832Z,12.45
2023-01-12T20:24:33.708Z,14.60
2023-01-12T20:27:03.781Z,10.90
2023-01-12T20:29:31.350Z,13.15
2023-01-12T20:32:02.651Z,12.30
2023-01-12T20:34:32.495Z,12.75
2023-01-12T20:37:01.223Z,15.82
2023-01-12T20:39:29.663Z,17.17
2023-01-12T20:41:57.443Z,11.48
2023-01-12T20:44:25.069Z,10.32
2023-01-12T20:46:53.500Z,12.70
2023-01-12T20:49:21.177Z,10.50
2023-01-12T20:51:52.394Z,9.77
2023-01-12T20:54:20.097Z,10.73
2023-01-12T20:56:47.878Z,10.93
2023-01-12T20:59:19.430Z,15.82
2023-01-12T21:01:47.227Z,12.68
2023-01-12T21:04:19.770Z,11.40
2023-01-12T21:06:48.567Z,10.70
2023-01-12T21:09:16.142Z,10.13
2023-01-12T21:11:47.088Z,10.40
2023-01-12T21:14:14.807Z,9.93
2023-01-12T21:16:42.559Z,9.43
2023-01-12T21:19:10.168Z,7.75
2023-01-12T21:21:43.408Z,9.40
2023-01-12T21:24:12.135Z,9.80
2023-01-12T21:26:42.399Z,15.77
2023-01-12T21:29:12.405Z,8.83
2023-01-12T21:31:41.332Z,9.20
2023-01-12T21:34:09.119Z,10.10
2023-01-12T21:36:36.793Z,9.18
2023-01-12T21:39:04.578Z,9.70
2023-01-12T21:41:52.300Z,6.33
2023-01-12T21:44:19.963Z,7.85
2023-01-12T21:46:50.825Z,9.88
2023-01-12T21:49:21.521Z,7.47
2023-01-12T21:51:55.682Z,7.72
2023-01-12T21:54:23.498Z,10.77
2023-01-12T21:56:54.050Z,7.22
2023-01-12T21:59:21.775Z,7.30
2023-01-12T22:01:51.944Z,8.00
2023-01-12T22:04:19.861Z,11.00
2023-01-12T22:06:50.751Z,7.43
2023-01-12T22:09:23.095Z,7.45
2023-01-12T22:11:56.056Z,10.13
2023-01-12T22:14:28.667Z,9.40
2023-01-12T22:16:56.465Z,8.40
2023-01-12T22:19:29.554Z,8.30
2023-01-12T22:22:08.528Z,8.40
2023-01-12T22:24:45.160Z,5.40
2023-01-12T22:27:30.800Z,10.32
2023-01-12T22:30:21.558Z,8.20
2023-01-12T22:32:55.775Z,8.97
2023-01-12T22:35:26.567Z,7.88
2023-01-12T22:37:57.462Z,7.45
2023-01-12T22:40:32.045Z,5.78
2023-01-12T22:43:43.175Z,6.82
2023-01-12T22:46:27.782Z,9.50
2023-01-12T22:48:59.744Z,7.50
2023-01-12T22:51:38.278Z,8.10
2023-01-12T22:54:08.379Z,9.10
2023-01-12T22:56:45.095Z,8.95
2023-01-12T22:59:21.420Z,7.97
2023-01-12T23:02:00.464Z,8.50
2023-01-12T23:04:28.283Z,9.32
2023-01-12T23:07:01.665Z,7.38
2023-01-12T23:09:31.607Z,7.35
2023-01-12T23:11:59.304Z,7.47
2023-01-12T23:14:29.340Z,8.75
2023-01-12T23:16:58.190Z,9.93
2023-01-12T23:19:28.490Z,8.60
2023-01-12T23:22:01.857Z,11.40
2023-01-12T23:24:29.604Z,8.23
2023-01-12T23:27:00.189Z,8.52
2023-01-12T23:29:30.494Z,10.02
2023-01-12T23:32:00.843Z,7.22
2023-01-12T23:34:32.547Z,9.27
2023-01-12T23:37:00.195Z,8.67
2023-01-12T23:39:27.751Z,9.43
2023-01-12T23:41:55.332Z,9.68
2023-01-12T23:44:24.886Z,7.45
2023-01-12T23:46:52.634Z,9.27
2023-01-12T23:49:23.298Z,7.73
2023-01-12T23:51:53.694Z,7.30
2023-01-12T23:54:29.302Z,9.95
2023-01-12T23:57:00.887Z,7.70
2023-01-12T23:59:28.787Z,7.60
